Terminal Aerodrome Forecast
Issued by NWS Jackson, MS

Home | Current Version | Previous Version | Text Only | Print | Product List | Glossary On
Versions: 1 2 3 4 5 6 7 8 9 10 11 12
565
FTUS44 KMEG 282334
TAFTUP
TAF
KTUP 282334Z 2900/2924 12010KT P6SM SCT060
     FM290100 16004KT P6SM SKC
     FM291200 18006KT P6SM SCT008 OVC015
      TEMPO 2912/2915 OVC008
     FM291500 20010KT P6SM BKN025
     FM291800 19012G18KT P6SM VCTS BKN035CB OVC080=

USA.gov is the U.S. government's official web portal to all federal, state and local government web resources and services.